^^
Daily Summary for March 31, 2021 Units:  English    Metric   Both
Daily Weekly Monthly Yearly Custom
  High: Low: Average:
Temperature: 80.0 °F 46.0 °F 62.2 °F
Dew Point: 44.0 °F 22.0 °F 29.6 °F
Humidity: 55% 16% 32%
Wind Speed: 20mph 0mph 3.6mph
Wind Gust: 20mph - -
Wind- - SE
Pressure: 30.3 in 30.2 in -
Precipitation: 0.000 in    
Historical Graphs
 
 
Tabular Data for March 31, 2021
Time Temperature Dew Point Pressure Wind Wind Speed Wind Gust Humidity Rainfall Rate (Hourly) solar
00:04 53.0 °F 26.0 °F 30.2 in Calm     36% 0.000 in 0.00 W/m2
00:09 52.0 °F 27.0 °F 30.2 in Calm     38% 0.000 in 0.00 W/m2
00:14 52.0 °F 27.0 °F 30.2 in Calm     38% 0.000 in 0.00 W/m2
00:19 52.0 °F 27.0 °F 30.2 in Calm     39% 0.000 in 0.00 W/m2
00:24 51.0 °F 28.0 °F 30.2 in Calm     40% 0.000 in 0.00 W/m2
00:29 51.0 °F 28.0 °F 30.2 in Calm     40% 0.000 in 0.00 W/m2
00:34 51.0 °F 27.0 °F 30.2 in Calm     39% 0.000 in 0.00 W/m2
00:39 50.0 °F 26.0 °F 30.2 in Calm     39% 0.000 in 0.00 W/m2
00:44 50.0 °F 26.0 °F 30.2 in Calm     39% 0.000 in 0.00 W/m2
00:49 50.0 °F 26.0 °F 30.2 in Calm     39% 0.000 in 0.00 W/m2
00:54 50.0 °F 26.0 °F 30.2 in Calm     39% 0.000 in 0.00 W/m2
00:59 49.0 °F 25.0 °F 30.2 in Calm     39% 0.000 in 0.00 W/m2
01:04 49.0 °F 26.0 °F 30.2 in Calm     40% 0.000 in 0.00 W/m2
01:09 49.0 °F 25.0 °F 30.2 in Calm     39% 0.000 in 0.00 W/m2
01:14 49.0 °F 25.0 °F 30.2 in Calm     39% 0.000 in 0.00 W/m2
01:19 49.0 °F 25.0 °F 30.2 in Calm     39% 0.000 in 0.00 W/m2
01:24 49.0 °F 24.0 °F 30.2 in Calm     38% 0.000 in 0.00 W/m2
01:29 49.0 °F 24.0 °F 30.2 in Calm     38% 0.000 in 0.00 W/m2
01:34 48.0 °F 25.0 °F 30.2 in Calm     39% 0.000 in 0.00 W/m2
01:39 48.0 °F 25.0 °F 30.2 in Calm     40% 0.000 in 0.00 W/m2
01:44 48.0 °F 26.0 °F 30.2 in Calm     41% 0.000 in 0.00 W/m2
01:49 48.0 °F 26.0 °F 30.2 in Calm     41% 0.000 in 0.00 W/m2
01:54 48.0 °F 26.0 °F 30.2 in Calm     41% 0.000 in 0.00 W/m2
01:59 48.0 °F 25.0 °F 30.2 in Calm     40% 0.000 in 0.00 W/m2
02:04 48.0 °F 24.0 °F 30.2 in Calm     39% 0.000 in 0.00 W/m2
02:09 48.0 °F 23.0 °F 30.2 in Calm     38% 0.000 in 0.00 W/m2
02:14 48.0 °F 24.0 °F 30.2 in Calm     39% 0.000 in 0.00 W/m2
02:19 48.0 °F 24.0 °F 30.2 in Calm     39% 0.000 in 0.00 W/m2
02:24 47.0 °F 24.0 °F 30.2 in Calm     39% 0.000 in 0.00 W/m2
02:29 47.0 °F 22.0 °F 30.2 in Calm     37% 0.000 in 0.00 W/m2
02:34 47.0 °F 23.0 °F 30.2 in Calm     38% 0.000 in 0.00 W/m2
02:39 47.0 °F 24.0 °F 30.2 in Calm     40% 0.000 in 0.00 W/m2
02:43 47.0 °F 26.0 °F 30.2 in Calm     44% 0.000 in 0.00 W/m2
02:49 47.0 °F 27.0 °F 30.2 in Calm     46% 0.000 in 0.00 W/m2
02:54 47.0 °F 27.0 °F 30.2 in Calm     46% 0.000 in 0.00 W/m2
02:59 47.0 °F 26.0 °F 30.2 in Calm     43% 0.000 in 0.00 W/m2
03:04 47.0 °F 24.0 °F 30.2 in North 2 mph   41% 0.000 in 0.00 W/m2
03:09 46.0 °F 23.0 °F 30.2 in Calm   2 mph 39% 0.000 in 0.00 W/m2
03:14 46.0 °F 24.0 °F 30.2 in Calm     42% 0.000 in 0.00 W/m2
03:19 46.0 °F 24.0 °F 30.2 in Calm     41% 0.000 in 0.00 W/m2
03:24 46.0 °F 24.0 °F 30.2 in Calm     42% 0.000 in 0.00 W/m2
03:28 46.0 °F 24.0 °F 30.2 in North 2 mph   42% 0.000 in 0.00 W/m2
03:34 46.0 °F 25.0 °F 30.2 in Calm   2 mph 43% 0.000 in 0.00 W/m2
03:39 46.0 °F 26.0 °F 30.2 in Calm     45% 0.000 in 0.00 W/m2
03:42 46.0 °F 26.0 °F 30.2 in Calm     45% 0.000 in 0.00 W/m2
03:49 46.0 °F 25.0 °F 30.2 in Calm     44% 0.000 in 0.00 W/m2
03:54 46.0 °F 25.0 °F 30.2 in Calm     44% 0.000 in 0.00 W/m2
03:59 46.0 °F 25.0 °F 30.2 in Calm     44% 0.000 in 0.00 W/m2
04:04 46.0 °F 26.0 °F 30.2 in Calm     45% 0.000 in 0.00 W/m2
04:09 46.0 °F 26.0 °F 30.2 in Calm     45% 0.000 in 0.00 W/m2
04:14 46.0 °F 26.0 °F 30.2 in Calm     45% 0.000 in 0.00 W/m2
04:19 46.0 °F 26.0 °F 30.2 in Calm     46% 0.000 in 0.00 W/m2
04:24 46.0 °F 27.0 °F 30.2 in Calm     47% 0.000 in 0.00 W/m2
04:29 46.0 °F 27.0 °F 30.2 in Calm     47% 0.000 in 0.00 W/m2
04:33 46.0 °F 26.0 °F 30.2 in North 2 mph   45% 0.000 in 0.00 W/m2
04:39 46.0 °F 25.0 °F 30.2 in NNW 2 mph 2 mph 44% 0.000 in 0.00 W/m2
04:44 46.0 °F 23.0 °F 30.2 in Calm   2 mph 40% 0.000 in 0.00 W/m2
04:49 46.0 °F 25.0 °F 30.2 in NNW 2 mph   43% 0.000 in 0.00 W/m2
04:54 46.0 °F 25.0 °F 30.2 in Calm   2 mph 43% 0.000 in 0.00 W/m2
04:59 46.0 °F 24.0 °F 30.2 in Calm     41% 0.000 in 0.00 W/m2
05:04 46.0 °F 23.0 °F 30.2 in NNW 2 mph 2 mph 39% 0.000 in 0.00 W/m2
05:09 46.0 °F 23.0 °F 30.2 in Calm     39% 0.000 in 0.00 W/m2
05:14 46.0 °F 23.0 °F 30.2 in NNW 2 mph   40% 0.000 in 0.00 W/m2
05:19 47.0 °F 24.0 °F 30.2 in Calm   2 mph 41% 0.000 in 0.00 W/m2
05:24 47.0 °F 24.0 °F 30.2 in NNW 2 mph 1 mph 41% 0.000 in 0.00 W/m2
05:29 47.0 °F 23.0 °F 30.2 in Calm   2 mph 39% 0.000 in 0.00 W/m2
05:34 47.0 °F 23.0 °F 30.2 in Calm     38% 0.000 in 0.00 W/m2
05:39 47.0 °F 23.0 °F 30.2 in Calm     38% 0.000 in 0.00 W/m2
05:44 47.0 °F 23.0 °F 30.2 in NNW 2 mph   38% 0.000 in 0.00 W/m2
05:49 47.0 °F 23.0 °F 30.2 in Calm   2 mph 39% 0.000 in 0.00 W/m2
05:54 47.0 °F 24.0 °F 30.2 in Calm     40% 0.000 in 0.00 W/m2
05:59 47.0 °F 24.0 °F 30.2 in Calm     40% 0.000 in 0.00 W/m2
06:04 47.0 °F 24.0 °F 30.2 in Calm     40% 0.000 in 0.00 W/m2
06:09 47.0 °F 24.0 °F 30.2 in Calm     39% 0.000 in 0.00 W/m2
06:14 47.0 °F 25.0 °F 30.2 in Calm     41% 0.000 in 0.00 W/m2
06:19 47.0 °F 24.0 °F 30.2 in Calm     40% 0.000 in 0.00 W/m2
06:24 47.0 °F 24.0 °F 30.2 in Calm     40% 0.000 in 0.00 W/m2
06:29 47.0 °F 24.0 °F 30.2 in Calm     40% 0.000 in 0.00 W/m2
06:34 47.0 °F 24.0 °F 30.2 in Calm     40% 0.000 in 0.00 W/m2
06:38 47.0 °F 25.0 °F 30.2 in Calm     41% 0.000 in 0.00 W/m2
06:44 47.0 °F 25.0 °F 30.2 in NNW 2 mph   42% 0.000 in 0.00 W/m2
06:49 47.0 °F 25.0 °F 30.2 in NNW 2 mph 2 mph 41% 0.000 in 0.00 W/m2
06:54 47.0 °F 24.0 °F 30.2 in Calm     41% 0.000 in 0.00 W/m2
06:59 47.0 °F 24.0 °F 30.2 in Calm     40% 0.000 in 5.00 W/m2
07:04 47.0 °F 24.0 °F 30.3 in NNE 2 mph 2 mph 41% 0.000 in 9.00 W/m2
07:09 47.0 °F 24.0 °F 30.3 in NNE 2 mph   41% 0.000 in 11.00 W/m2
07:14 47.0 °F 25.0 °F 30.3 in Calm     42% 0.000 in 12.00 W/m2
07:19 47.0 °F 25.0 °F 30.3 in Calm     42% 0.000 in 14.00 W/m2
07:24 47.0 °F 27.0 °F 30.3 in Calm     45% 0.000 in 16.00 W/m2
07:29 47.0 °F 26.0 °F 30.3 in Calm   2 mph 43% 0.000 in 18.00 W/m2
07:44 47.0 °F 27.0 °F 30.3 in NNW 2 mph   45% 0.000 in 23.00 W/m2
07:49 47.0 °F 28.0 °F 30.3 in Calm     47% 0.000 in 25.00 W/m2
07:54 47.0 °F 28.0 °F 30.3 in Calm     47% 0.000 in 28.00 W/m2
07:59 47.0 °F 29.0 °F 30.3 in Calm     48% 0.000 in 30.00 W/m2
08:04 47.0 °F 29.0 °F 30.3 in Calm     49% 0.000 in 32.00 W/m2
08:09 47.0 °F 30.0 °F 30.3 in Calm     50% 0.000 in 35.00 W/m2
08:14 48.0 °F 30.0 °F 30.3 in Calm     51% 0.000 in 37.00 W/m2
08:19 48.0 °F 30.0 °F 30.3 in Calm     51% 0.000 in 40.00 W/m2
08:24 48.0 °F 30.0 °F 30.3 in Calm     51% 0.000 in 46.00 W/m2
08:29 48.0 °F 31.0 °F 30.3 in Calm     51% 0.000 in 47.00 W/m2
08:34 49.0 °F 32.0 °F 30.3 in Calm     53% 0.000 in 250.00 W/m2
08:39 49.0 °F 33.0 °F 30.3 in Calm     54% 0.000 in 366.00 W/m2
08:44 50.0 °F 34.0 °F 30.3 in Calm     55% 0.000 in 385.00 W/m2
08:49 50.0 °F 34.0 °F 30.3 in NE 2 mph   55% 0.000 in 406.00 W/m2
08:54 51.0 °F 35.0 °F 30.3 in Calm   2 mph 53% 0.000 in 424.00 W/m2
08:59 52.0 °F 35.0 °F 30.3 in Calm     53% 0.000 in 443.00 W/m2
09:04 53.0 °F 33.0 °F 30.3 in NE 2 mph   48% 0.000 in 461.00 W/m2
09:09 55.0 °F 33.0 °F 30.3 in NNE 2 mph 2 mph 45% 0.000 in 478.00 W/m2
09:14 56.0 °F 33.0 °F 30.3 in Calm   2 mph 43% 0.000 in 490.00 W/m2
09:19 57.0 °F 33.0 °F 30.3 in NNE 4 mph 3 mph 41% 0.000 in 517.00 W/m2
09:24 58.0 °F 33.0 °F 30.3 in NNW 2 mph 2 mph 39% 0.000 in 519.00 W/m2
09:29 59.0 °F 29.0 °F 30.3 in North 2 mph 2 mph 32% 0.000 in 550.00 W/m2
09:34 60.0 °F 29.0 °F 30.3 in NNE 2 mph 2 mph 31% 0.000 in 566.00 W/m2
09:39 62.0 °F 28.0 °F 30.3 in Calm   2 mph 29% 0.000 in 584.00 W/m2
09:44 63.0 °F 29.0 °F 30.3 in NNE 2 mph   29% 0.000 in 599.00 W/m2
09:49 64.0 °F 30.0 °F 30.3 in ENE 2 mph 2 mph 28% 0.000 in 613.00 W/m2
09:54 65.0 °F 29.0 °F 30.3 in Calm   2 mph 27% 0.000 in 633.00 W/m2
09:59 66.0 °F 30.0 °F 30.3 in ESE 6 mph 2 mph 27% 0.000 in 647.00 W/m2
10:04 67.0 °F 29.0 °F 30.3 in SE 2 mph 6 mph 25% 0.000 in 663.00 W/m2
10:09 68.0 °F 30.0 °F 30.3 in SE 6 mph 2 mph 24% 0.000 in 679.00 W/m2
10:14 68.0 °F 29.0 °F 30.3 in SE 2 mph 6 mph 23% 0.000 in 689.00 W/m2
10:19 69.0 °F 30.0 °F 30.3 in NE 4 mph 2 mph 24% 0.000 in 705.00 W/m2
10:24 70.0 °F 30.0 °F 30.3 in NE 7 mph 3 mph 23% 0.000 in 717.00 W/m2
10:29 70.0 °F 29.0 °F 30.2 in East 4 mph 7 mph 22% 0.000 in 735.00 W/m2
10:34 71.0 °F 29.0 °F 30.2 in SE 4 mph 2 mph 21% 0.000 in 744.00 W/m2
10:39 71.0 °F 27.0 °F 30.2 in NE 2 mph 3 mph 19% 0.000 in 758.00 W/m2
10:44 72.0 °F 28.0 °F 30.2 in NNE 7 mph 2 mph 20% 0.000 in 766.00 W/m2
10:49 72.0 °F 29.0 °F 30.2 in SE 2 mph 7 mph 20% 0.000 in 780.00 W/m2
10:54 73.0 °F 29.0 °F 30.2 in SE 11 mph 3 mph 20% 0.000 in 791.00 W/m2
10:59 73.0 °F 27.0 °F 30.2 in SE 6 mph 10 mph 18% 0.000 in 802.00 W/m2
11:04 73.0 °F 29.0 °F 30.2 in SE 2 mph 6 mph 19% 0.000 in 809.00 W/m2
11:09 74.0 °F 31.0 °F 30.2 in ENE 5 mph 2 mph 21% 0.000 in 819.00 W/m2
11:14 74.0 °F 30.0 °F 30.2 in ESE 7 mph 6 mph 20% 0.000 in 828.00 W/m2
11:19 74.0 °F 30.0 °F 30.2 in SSE 7 mph 7 mph 20% 0.000 in 837.00 W/m2
11:24 74.0 °F 31.0 °F 30.2 in SSE 7 mph 6 mph 20% 0.000 in 844.00 W/m2
11:29 75.0 °F 32.0 °F 30.2 in ENE 9 mph 7 mph 21% 0.000 in 854.00 W/m2
11:34 75.0 °F 31.0 °F 30.2 in East 7 mph 9 mph 20% 0.000 in 860.00 W/m2
11:39 75.0 °F 28.0 °F 30.2 in SE 13 mph 7 mph 18% 0.000 in 865.00 W/m2
11:44 75.0 °F 28.0 °F 30.2 in ESE 7 mph 13 mph 18% 0.000 in 875.00 W/m2
11:49 75.0 °F 28.0 °F 30.2 in East 7 mph 7 mph 18% 0.000 in 879.00 W/m2
11:54 75.0 °F 28.0 °F 30.2 in SE 11 mph 7 mph 18% 0.000 in 886.00 W/m2
11:59 75.0 °F 27.0 °F 30.2 in SE 10 mph 10 mph 17% 0.000 in 889.00 W/m2
12:04 75.0 °F 27.0 °F 30.2 in SSE 13 mph 13 mph 17% 0.000 in 893.00 W/m2
12:09 75.0 °F 26.0 °F 30.2 in ESE 11 mph 13 mph 16% 0.000 in 896.00 W/m2
12:14 75.0 °F 29.0 °F 30.2 in ESE 7 mph 10 mph 18% 0.000 in 902.00 W/m2
12:19 75.0 °F 27.0 °F 30.2 in SSE 9 mph 7 mph 17% 0.000 in 904.00 W/m2
12:24 75.0 °F 26.0 °F 30.2 in SSE 12 mph 9 mph 16% 0.000 in 909.00 W/m2
12:29 76.0 °F 29.0 °F 30.2 in ESE 13 mph 13 mph 18% 0.000 in 911.00 W/m2
12:34 76.0 °F 28.0 °F 30.2 in SE 7 mph 10 mph 17% 0.000 in 912.00 W/m2
12:39 76.0 °F 26.0 °F 30.2 in South 11 mph 7 mph 16% 0.000 in 914.00 W/m2
12:44 76.0 °F 29.0 °F 30.2 in SW 11 mph 10 mph 18% 0.000 in 916.00 W/m2
12:49 76.0 °F 27.0 °F 30.2 in SSE 18 mph 7 mph 16% 0.000 in 918.00 W/m2
12:54 76.0 °F 27.0 °F 30.2 in SSE 16 mph 17 mph 16% 0.000 in 919.00 W/m2
12:59 76.0 °F 28.0 °F 30.2 in SSE 11 mph 16 mph 17% 0.000 in 916.00 W/m2
13:04 76.0 °F 28.0 °F 30.2 in ESE 9 mph 6 mph 17% 0.000 in 914.00 W/m2
13:09 77.0 °F 32.0 °F 30.2 in NE 7 mph 9 mph 19% 0.000 in 916.00 W/m2
13:14 77.0 °F 30.0 °F 30.2 in SSE 7 mph 6 mph 18% 0.000 in 914.00 W/m2
13:19 78.0 °F 32.0 °F 30.2 in SSE 7 mph 7 mph 19% 0.000 in 907.00 W/m2
13:24 78.0 °F 32.0 °F 30.2 in SSE 11 mph 10 mph 19% 0.000 in 907.00 W/m2
13:29 78.0 °F 31.0 °F 30.2 in ESE 18 mph 10 mph 18% 0.000 in 904.00 W/m2
13:34 78.0 °F 28.0 °F 30.2 in SSE 13 mph 17 mph 16% 0.000 in 900.00 W/m2
13:39 78.0 °F 30.0 °F 30.2 in SE 9 mph 13 mph 17% 0.000 in 893.00 W/m2
13:44 78.0 °F 31.0 °F 30.2 in ESE 7 mph 9 mph 18% 0.000 in 888.00 W/m2
13:49 78.0 °F 31.0 °F 30.2 in SE 11 mph 10 mph 18% 0.000 in 882.00 W/m2
13:54 78.0 °F 31.0 °F 30.2 in South 13 mph 9 mph 18% 0.000 in 879.00 W/m2
13:59 78.0 °F 30.0 °F 30.2 in SSW 6 mph 13 mph 17% 0.000 in 874.00 W/m2
14:04 78.0 °F 34.0 °F 30.2 in ENE 6 mph 6 mph 20% 0.000 in 867.00 W/m2
14:09 78.0 °F 34.0 °F 30.2 in East 9 mph 6 mph 20% 0.000 in 860.00 W/m2
14:14 78.0 °F 30.0 °F 30.2 in SE 20 mph 18 mph 17% 0.000 in 856.00 W/m2
14:19 78.0 °F 30.0 °F 30.2 in SSW 9 mph 20 mph 17% 0.000 in 847.00 W/m2
14:24 78.0 °F 31.0 °F 30.2 in SSE 14 mph 9 mph 18% 0.000 in 838.00 W/m2
14:29 78.0 °F 31.0 °F 30.2 in South 11 mph 14 mph 18% 0.000 in 831.00 W/m2
14:34 78.0 °F 30.0 °F 30.2 in SE 16 mph 10 mph 17% 0.000 in 821.00 W/m2
14:39 79.0 °F 32.0 °F 30.2 in NW 2 mph 16 mph 18% 0.000 in 814.00 W/m2
14:44 79.0 °F 32.0 °F 30.2 in ENE 7 mph 2 mph 18% 0.000 in 802.00 W/m2
14:49 80.0 °F 32.0 °F 30.2 in SSW 7 mph 7 mph 18% 0.000 in 795.00 W/m2
14:54 80.0 °F 31.0 °F 30.2 in South 11 mph 9 mph 17% 0.000 in 788.00 W/m2
14:59 80.0 °F 32.0 °F 30.2 in SE 9 mph 10 mph 18% 0.000 in 773.00 W/m2
15:04 79.0 °F 32.0 °F 30.2 in WSW 9 mph 9 mph 18% 0.000 in 761.00 W/m2
15:09 79.0 °F 32.0 °F 30.2 in SE 16 mph 9 mph 18% 0.000 in 751.00 W/m2
15:14 79.0 °F 32.0 °F 30.2 in SSE 9 mph 16 mph 18% 0.000 in 738.00 W/m2
15:19 79.0 °F 29.0 °F 30.2 in South 11 mph 9 mph 16% 0.000 in 724.00 W/m2
15:24 79.0 °F 30.0 °F 30.2 in SSE 9 mph 10 mph 17% 0.000 in 714.00 W/m2
15:29 79.0 °F 30.0 °F 30.2 in ENE 9 mph 9 mph 17% 0.000 in 701.00 W/m2
15:34 79.0 °F 30.0 °F 30.2 in SSE 11 mph 10 mph 17% 0.000 in 686.00 W/m2
15:39 79.0 °F 32.0 °F 30.2 in ESE 6 mph 9 mph 18% 0.000 in 671.00 W/m2
15:44 79.0 °F 33.0 °F 30.2 in ENE 6 mph 6 mph 19% 0.000 in 661.00 W/m2
15:49 80.0 °F 34.0 °F 30.2 in ENE 6 mph 6 mph 19% 0.000 in 649.00 W/m2
15:54 80.0 °F 31.0 °F 30.2 in SE 16 mph 16 mph 17% 0.000 in 635.00 W/m2
15:59 80.0 °F 31.0 °F 30.2 in SE 9 mph 16 mph 17% 0.000 in 621.00 W/m2
16:04 80.0 °F 31.0 °F 30.2 in SSE 13 mph 8 mph 17% 0.000 in 605.00 W/m2
16:09 80.0 °F 30.0 °F 30.2 in SSE 9 mph 13 mph 16% 0.000 in 589.00 W/m2
16:14 80.0 °F 31.0 °F 30.2 in East 5 mph 9 mph 17% 0.000 in 573.00 W/m2
16:19 80.0 °F 31.0 °F 30.2 in SE 11 mph 10 mph 17% 0.000 in 559.00 W/m2
16:24 80.0 °F 33.0 °F 30.2 in ESE 2 mph 10 mph 18% 0.000 in 545.00 W/m2
16:29 80.0 °F 31.0 °F 30.2 in South 6 mph 2 mph 17% 0.000 in 527.00 W/m2
16:34 80.0 °F 33.0 °F 30.2 in SSE 2 mph 6 mph 18% 0.000 in 512.00 W/m2
16:39 80.0 °F 31.0 °F 30.2 in South 9 mph 8 mph 17% 0.000 in 492.00 W/m2
16:44 80.0 °F 33.0 °F 30.2 in SSE 9 mph 9 mph 18% 0.000 in 475.00 W/m2
16:49 80.0 °F 33.0 °F 30.2 in East 4 mph 6 mph 18% 0.000 in 461.00 W/m2
16:54 80.0 °F 30.0 °F 30.2 in SE 6 mph 3 mph 16% 0.000 in 443.00 W/m2
16:59 80.0 °F 33.0 °F 30.2 in SE 9 mph 7 mph 18% 0.000 in 427.00 W/m2
17:03 80.0 °F 31.0 °F 30.2 in SSE 7 mph 9 mph 17% 0.000 in 410.00 W/m2
17:09 80.0 °F 30.0 °F 30.2 in SE 4 mph 7 mph 16% 0.000 in 390.00 W/m2
17:14 79.0 °F 31.0 °F 30.2 in SE 4 mph 2 mph 17% 0.000 in 97.00 W/m2
17:19 79.0 °F 33.0 °F 30.2 in East 4 mph 3 mph 19% 0.000 in 62.00 W/m2
17:24 79.0 °F 33.0 °F 30.2 in ESE 6 mph 3 mph 19% 0.000 in 65.00 W/m2
17:29 78.0 °F 31.0 °F 30.2 in SSE 7 mph 6 mph 18% 0.000 in 58.00 W/m2
17:34 77.0 °F 32.0 °F 30.2 in SE 6 mph 7 mph 19% 0.000 in 53.00 W/m2
17:39 77.0 °F 32.0 °F 30.2 in SE 6 mph 6 mph 20% 0.000 in 65.00 W/m2
17:44 76.0 °F 34.0 °F 30.2 in Calm   6 mph 22% 0.000 in 51.00 W/m2
17:49 76.0 °F 34.0 °F 30.2 in SSE 6 mph 3 mph 22% 0.000 in 47.00 W/m2
17:54 75.0 °F 34.0 °F 30.2 in SE 2 mph 6 mph 22% 0.000 in 42.00 W/m2
17:59 75.0 °F 34.0 °F 30.2 in SE 6 mph 2 mph 23% 0.000 in 42.00 W/m2
18:04 75.0 °F 33.0 °F 30.2 in South 7 mph 7 mph 22% 0.000 in 35.00 W/m2
18:09 74.0 °F 35.0 °F 30.2 in SSE 6 mph 7 mph 24% 0.000 in 33.00 W/m2
18:14 74.0 °F 35.0 °F 30.2 in SSE 2 mph 3 mph 25% 0.000 in 32.00 W/m2
18:19 73.0 °F 35.0 °F 30.2 in SSE 4 mph 2 mph 25% 0.000 in 30.00 W/m2
18:24 73.0 °F 36.0 °F 30.2 in SSE 6 mph 6 mph 26% 0.000 in 28.00 W/m2
18:29 73.0 °F 36.0 °F 30.2 in SE 4 mph 3 mph 26% 0.000 in 26.00 W/m2
18:34 72.0 °F 36.0 °F 30.2 in SSE 6 mph 3 mph 27% 0.000 in 25.00 W/m2
18:39 72.0 °F 34.0 °F 30.2 in SSE 4 mph 6 mph 25% 0.000 in 23.00 W/m2
18:44 72.0 °F 36.0 °F 30.2 in SSE 2 mph 3 mph 27% 0.000 in 21.00 W/m2
18:49 71.0 °F 38.0 °F 30.2 in SSE 2 mph 2 mph 30% 0.000 in 19.00 W/m2
18:54 71.0 °F 40.0 °F 30.2 in SSE 2 mph   32% 0.000 in 16.00 W/m2
18:58 71.0 °F 40.0 °F 30.2 in SSE 2 mph 2 mph 33% 0.000 in 14.00 W/m2
19:04 70.0 °F 43.0 °F 30.2 in Calm   2 mph 37% 0.000 in 12.00 W/m2
19:09 70.0 °F 42.0 °F 30.2 in Calm     37% 0.000 in 11.00 W/m2
19:14 70.0 °F 42.0 °F 30.2 in Calm     37% 0.000 in 9.00 W/m2
19:19 69.0 °F 43.0 °F 30.2 in Calm     39% 0.000 in 7.00 W/m2
19:24 68.0 °F 43.0 °F 30.2 in Calm     41% 0.000 in 5.00 W/m2
19:29 68.0 °F 44.0 °F 30.2 in Calm     43% 0.000 in 0.00 W/m2
19:34 67.0 °F 44.0 °F 30.2 in Calm     43% 0.000 in 0.00 W/m2
19:39 66.0 °F 42.0 °F 30.2 in Calm     42% 0.000 in 0.00 W/m2
19:44 65.0 °F 42.0 °F 30.2 in Calm     43% 0.000 in 0.00 W/m2
19:49 65.0 °F 42.0 °F 30.2 in Calm     44% 0.000 in 0.00 W/m2
19:54 64.0 °F 42.0 °F 30.2 in Calm     45% 0.000 in 0.00 W/m2
19:59 63.0 °F 42.0 °F 30.2 in Calm     45% 0.000 in 0.00 W/m2
20:04 63.0 °F 42.0 °F 30.2 in Calm     47% 0.000 in 0.00 W/m2
20:09 62.0 °F 42.0 °F 30.2 in Calm     47% 0.000 in 0.00 W/m2
20:14 62.0 °F 41.0 °F 30.2 in Calm     46% 0.000 in 0.00 W/m2
20:19 61.0 °F 41.0 °F 30.2 in Calm     48% 0.000 in 0.00 W/m2
20:24 61.0 °F 42.0 °F 30.2 in Calm     50% 0.000 in 0.00 W/m2
20:29 60.0 °F 42.0 °F 30.2 in Calm     50% 0.000 in 0.00 W/m2
20:33 60.0 °F 41.0 °F 30.2 in Calm     49% 0.000 in 0.00 W/m2
El Dorado Weather
Compliments of Weather Underground - 2 mb